createdAt,value
2018-02-21T00:01:27.614Z,81.44
2018-02-21T00:03:56.030Z,82.08
2018-02-21T00:06:24.371Z,82.35
2018-02-21T00:08:52.722Z,82.49
2018-02-21T00:11:21.157Z,82.60
2018-02-21T00:13:49.542Z,83.08
2018-02-21T00:16:17.866Z,83.12
2018-02-21T00:18:46.221Z,82.77
2018-02-21T00:21:14.557Z,82.63
2018-02-21T00:23:42.946Z,82.66
2018-02-21T00:26:11.376Z,82.82
2018-02-21T00:28:39.798Z,82.75
2018-02-21T00:31:08.183Z,82.80
2018-02-21T00:33:36.538Z,83.09
2018-02-21T00:36:04.870Z,83.22
2018-02-21T00:38:33.221Z,82.89
2018-02-21T00:41:01.554Z,82.68
2018-02-21T00:43:29.963Z,83.46
2018-02-21T00:45:58.294Z,84.45
2018-02-21T00:48:26.649Z,85.30
2018-02-21T00:50:54.977Z,85.64
2018-02-21T00:53:23.334Z,85.88
2018-02-21T00:55:51.750Z,85.90
2018-02-21T00:58:20.110Z,85.38
2018-02-21T01:00:48.503Z,84.18
2018-02-21T01:03:16.877Z,83.27
2018-02-21T01:05:45.259Z,82.39
2018-02-21T01:08:13.614Z,82.13
2018-02-21T01:10:41.941Z,82.02
2018-02-21T01:13:10.385Z,82.23
2018-02-21T01:15:38.727Z,82.36
2018-02-21T01:18:07.138Z,82.40
2018-02-21T01:20:35.473Z,81.74
2018-02-21T01:23:03.822Z,81.57
2018-02-21T01:25:32.158Z,81.22
2018-02-21T01:28:00.550Z,80.45
2018-02-21T01:30:28.930Z,79.74
2018-02-21T01:32:57.278Z,79.23
2018-02-21T01:35:25.682Z,79.03
2018-02-21T01:37:54.039Z,78.69
2018-02-21T01:40:22.361Z,78.63
2018-02-21T01:42:50.718Z,78.82
2018-02-21T01:45:19.046Z,78.76
2018-02-21T01:47:47.466Z,78.76
2018-02-21T01:50:15.839Z,78.77
2018-02-21T01:52:44.174Z,79.36
2018-02-21T01:55:12.600Z,79.29
2018-02-21T01:57:40.974Z,78.94
2018-02-21T02:00:09.354Z,78.92
2018-02-21T02:02:37.686Z,79.55
2018-02-21T02:05:06.105Z,80.46
2018-02-21T02:07:34.446Z,82.43
2018-02-21T02:10:02.869Z,83.05
2018-02-21T02:12:31.211Z,83.61
2018-02-21T02:14:59.553Z,84.46
2018-02-21T02:17:27.994Z,85.17
2018-02-21T02:19:56.350Z,85.75
2018-02-21T02:22:24.750Z,85.62
2018-02-21T02:24:53.106Z,85.07
2018-02-21T02:27:21.506Z,85.11
2018-02-21T02:29:49.853Z,85.33
2018-02-21T02:32:18.261Z,85.45
2018-02-21T02:34:46.638Z,85.39
2018-02-21T02:37:14.978Z,85.18
2018-02-21T02:39:50.254Z,85.13
2018-02-21T02:42:18.594Z,85.57
2018-02-21T02:44:47.010Z,86.09
2018-02-21T02:47:15.338Z,86.23
2018-02-21T02:49:43.759Z,86.40
2018-02-21T02:52:12.189Z,86.66
2018-02-21T02:54:40.529Z,86.65
2018-02-21T02:57:08.898Z,86.63
2018-02-21T02:59:37.249Z,86.58
2018-02-21T03:02:05.646Z,86.45
2018-02-21T03:04:33.996Z,86.30
2018-02-21T03:07:02.399Z,86.00
2018-02-21T03:09:30.774Z,85.43
2018-02-21T03:11:59.156Z,84.98
2018-02-21T03:14:27.515Z,84.38
2018-02-21T03:16:55.910Z,84.00
2018-02-21T03:19:24.285Z,83.57
2018-02-21T03:21:52.613Z,83.61
2018-02-21T03:24:21.038Z,84.12
2018-02-21T03:26:49.413Z,84.27
2018-02-21T03:29:17.771Z,83.85
2018-02-21T03:31:46.101Z,83.37
2018-02-21T03:34:14.545Z,83.01
2018-02-21T03:36:42.884Z,83.53
2018-02-21T03:39:11.242Z,84.46
2018-02-21T03:41:39.566Z,85.07
2018-02-21T03:44:07.921Z,84.96
2018-02-21T03:46:36.249Z,84.31
2018-02-21T03:49:04.710Z,83.73
2018-02-21T03:51:33.056Z,83.35
2018-02-21T03:54:01.406Z,82.98
2018-02-21T03:56:29.769Z,82.86
2018-02-21T03:58:58.118Z,84.04
2018-02-21T04:01:26.489Z,84.32
2018-02-21T04:03:54.868Z,84.64
2018-02-21T04:06:23.245Z,84.52
2018-02-21T04:08:51.580Z,84.49
2018-02-21T04:11:19.934Z,84.70
2018-02-21T04:13:48.284Z,84.79
2018-02-21T04:16:16.630Z,84.67
2018-02-21T04:18:45.031Z,84.84
2018-02-21T04:21:13.387Z,85.38
2018-02-21T04:23:41.718Z,85.51
2018-02-21T04:26:10.071Z,85.43
2018-02-21T04:28:38.399Z,85.96
2018-02-21T04:31:06.753Z,86.77
2018-02-21T04:33:35.143Z,86.97
2018-02-21T04:36:03.493Z,86.79
2018-02-21T04:38:31.845Z,86.55
2018-02-21T04:41:00.197Z,86.25
2018-02-21T04:43:28.601Z,86.08
2018-02-21T04:45:56.967Z,85.77
2018-02-21T04:48:25.349Z,85.73
2018-02-21T04:50:53.733Z,85.94
2018-02-21T04:53:22.066Z,86.15
2018-02-21T04:59:02.769Z,85.39
2018-02-21T05:01:31.117Z,84.91
2018-02-21T05:03:59.450Z,84.15
2018-02-21T05:06:27.814Z,83.18
2018-02-21T05:08:56.137Z,82.34
2018-02-21T05:11:24.582Z,82.02
2018-02-21T05:13:52.959Z,81.69
2018-02-21T05:16:21.333Z,81.52
2018-02-21T05:18:49.674Z,81.28
2018-02-21T05:21:18.018Z,80.97
2018-02-21T05:23:46.361Z,80.87
2018-02-21T05:26:14.719Z,80.96
2018-02-21T05:28:43.045Z,80.97
2018-02-21T05:31:11.494Z,80.91
2018-02-21T05:33:39.874Z,80.81
2018-02-21T05:36:08.226Z,80.72
2018-02-21T05:38:36.629Z,80.63
2018-02-21T05:41:04.993Z,80.67
2018-02-21T05:43:33.385Z,80.94
2018-02-21T05:46:01.784Z,81.23
2018-02-21T05:48:30.097Z,81.41
2018-02-21T05:50:58.521Z,82.07
2018-02-21T05:53:26.890Z,82.03
2018-02-21T05:55:55.245Z,84.39
2018-02-21T05:58:23.671Z,84.66
2018-02-21T06:00:53.005Z,83.14
2018-02-21T06:03:21.422Z,81.94
2018-02-21T06:05:49.802Z,81.17
2018-02-21T06:08:18.134Z,80.94
2018-02-21T06:10:46.496Z,80.98
2018-02-21T06:13:14.933Z,80.92
2018-02-21T06:15:43.298Z,81.50
2018-02-21T06:18:11.692Z,82.27
2018-02-21T06:20:41.021Z,82.70
2018-02-21T06:23:09.570Z,83.28
2018-02-21T06:25:37.927Z,83.12
2018-02-21T06:28:07.475Z,83.20
2018-02-21T06:30:35.927Z,84.11
2018-02-21T06:33:04.265Z,85.39
2018-02-21T06:35:32.682Z,85.60
2018-02-21T06:38:01.071Z,85.65
2018-02-21T06:40:29.423Z,85.73
2018-02-21T06:42:57.775Z,86.66
2018-02-21T06:45:26.106Z,88.18
2018-02-21T06:47:54.462Z,88.94
2018-02-21T06:50:22.802Z,89.04
2018-02-21T06:52:51.162Z,88.84
2018-02-21T06:55:19.498Z,88.32
2018-02-21T06:57:47.849Z,87.70
2018-02-21T07:00:17.008Z,87.34
2018-02-21T07:02:45.593Z,87.04
2018-02-21T07:05:13.946Z,85.92
2018-02-21T07:07:42.405Z,85.74
2018-02-21T07:10:10.746Z,85.45
2018-02-21T07:12:39.107Z,85.07
2018-02-21T07:15:07.446Z,84.51
2018-02-21T07:17:35.811Z,84.38
2018-02-21T07:20:04.141Z,84.39
2018-02-21T07:22:32.505Z,84.11
2018-02-21T07:25:00.844Z,83.92
2018-02-21T07:27:29.223Z,83.44
2018-02-21T07:29:57.569Z,83.24
2018-02-21T07:32:26.932Z,83.41
2018-02-21T07:34:55.259Z,82.98
2018-02-21T07:37:23.618Z,82.54
2018-02-21T07:39:52.031Z,82.18
2018-02-21T07:42:20.405Z,82.23
2018-02-21T07:44:48.745Z,82.74
2018-02-21T07:47:17.738Z,83.30
2018-02-21T07:49:46.078Z,85.11
2018-02-21T07:52:14.428Z,85.02
2018-02-21T07:54:42.807Z,83.89
2018-02-21T07:57:11.162Z,83.84
2018-02-21T07:59:39.553Z,84.20
2018-02-21T08:02:07.918Z,84.96
2018-02-21T08:04:36.249Z,85.49
2018-02-21T08:07:05.402Z,86.26
2018-02-21T08:09:33.737Z,86.63
2018-02-21T08:12:02.172Z,87.06
2018-02-21T08:14:30.542Z,87.50
2018-02-21T08:16:58.922Z,87.97
2018-02-21T08:19:27.296Z,88.13
2018-02-21T08:21:55.670Z,88.37
2018-02-21T08:24:24.060Z,88.29
2018-02-21T08:26:52.410Z,88.06
2018-02-21T08:29:20.746Z,88.35
2018-02-21T08:31:49.107Z,88.44
2018-02-21T08:34:17.450Z,88.98
2018-02-21T08:36:45.802Z,89.15
2018-02-21T08:39:14.206Z,89.34
2018-02-21T08:41:42.562Z,89.36
2018-02-21T08:44:10.966Z,88.71
2018-02-21T08:46:39.345Z,88.50
2018-02-21T08:49:07.717Z,89.20
2018-02-21T08:51:36.054Z,88.88
2018-02-21T08:54:04.469Z,88.54
2018-02-21T08:56:32.811Z,88.53
2018-02-21T08:59:01.161Z,88.10
2018-02-21T09:01:29.494Z,88.57
2018-02-21T09:03:57.860Z,87.87
2018-02-21T09:06:26.258Z,87.67
2018-02-21T09:08:54.634Z,87.40
2018-02-21T09:11:23.010Z,86.61
2018-02-21T09:13:51.362Z,86.28
2018-02-21T09:16:19.693Z,86.04
2018-02-21T09:18:48.055Z,86.50
2018-02-21T09:21:16.390Z,85.58
2018-02-21T09:23:44.754Z,85.53
2018-02-21T09:26:13.166Z,85.34
2018-02-21T09:28:41.531Z,85.68
2018-02-21T09:31:09.865Z,85.31
2018-02-21T09:33:38.306Z,84.94
2018-02-21T09:36:06.642Z,84.97
2018-02-21T09:38:35.054Z,84.56
2018-02-21T09:41:03.389Z,84.27
2018-02-21T09:43:31.812Z,83.41
2018-02-21T09:46:00.146Z,83.75
2018-02-21T09:48:28.563Z,83.16
2018-02-21T09:50:56.942Z,83.98
2018-02-21T09:53:25.322Z,83.63
2018-02-21T09:55:53.642Z,83.36
2018-02-21T09:58:22.069Z,82.96
2018-02-21T10:00:50.399Z,83.21
2018-02-21T10:03:18.836Z,82.76
2018-02-21T10:05:47.209Z,82.85
2018-02-21T10:08:15.558Z,82.69
2018-02-21T10:10:44.010Z,82.35
2018-02-21T10:13:12.318Z,81.31
2018-02-21T10:15:40.648Z,81.29
2018-02-21T10:18:09.143Z,81.32
2018-02-21T10:20:37.467Z,81.10
2018-02-21T10:23:05.821Z,80.98
2018-02-21T10:25:34.217Z,79.96
2018-02-21T10:28:02.565Z,79.01
2018-02-21T10:30:30.894Z,79.29
2018-02-21T10:32:59.240Z,78.74
2018-02-21T10:35:27.578Z,78.79
2018-02-21T10:37:55.922Z,78.29
2018-02-21T10:40:24.249Z,77.44
2018-02-21T10:42:52.608Z,77.35
2018-02-21T10:45:20.938Z,77.19
2018-02-21T10:47:49.297Z,77.00
2018-02-21T10:50:17.629Z,76.15
2018-02-21T10:52:45.966Z,77.02
2018-02-21T10:55:14.317Z,77.29
2018-02-21T10:57:42.654Z,76.42
2018-02-21T11:00:11.002Z,73.46
2018-02-21T11:02:40.338Z,73.86
2018-02-21T11:05:08.678Z,74.81
2018-02-21T11:07:37.008Z,75.79
2018-02-21T11:10:05.353Z,75.02
2018-02-21T11:12:33.680Z,73.97
2018-02-21T11:15:02.053Z,75.95
2018-02-21T11:17:30.394Z,76.79
2018-02-21T11:19:58.743Z,72.50
2018-02-21T11:22:27.354Z,72.26
2018-02-21T11:24:55.701Z,72.04
2018-02-21T11:27:24.030Z,73.52
2018-02-21T11:29:52.382Z,72.26
2018-02-21T11:32:20.706Z,72.81
2018-02-21T11:34:49.062Z,72.35
2018-02-21T11:37:17.399Z,72.80
2018-02-21T11:39:45.750Z,72.27
2018-02-21T11:42:14.895Z,72.10
2018-02-21T11:44:43.291Z,72.55
2018-02-21T11:47:11.643Z,72.44
2018-02-21T11:49:39.994Z,71.86
2018-02-21T11:52:08.317Z,72.15
2018-02-21T11:54:36.665Z,71.96
2018-02-21T11:57:04.992Z,71.65
2018-02-21T11:59:33.346Z,71.90
2018-02-21T12:02:01.691Z,72.29
2018-02-21T12:04:30.039Z,71.25
2018-02-21T12:06:58.367Z,71.18
2018-02-21T12:09:26.713Z,70.55
2018-02-21T12:11:55.043Z,70.06
2018-02-21T12:14:23.393Z,70.58
2018-02-21T12:16:51.734Z,70.04
2018-02-21T12:19:20.201Z,69.91
2018-02-21T12:21:48.538Z,69.51
2018-02-21T12:24:16.877Z,68.32
2018-02-21T12:26:45.214Z,69.01
2018-02-21T12:29:13.557Z,69.69
2018-02-21T12:31:41.895Z,68.30
2018-02-21T12:34:10.234Z,69.20
2018-02-21T12:36:38.566Z,67.71
2018-02-21T12:39:12.647Z,66.88
2018-02-21T12:41:42.910Z,67.08
2018-02-21T12:44:11.274Z,66.62
2018-02-21T12:46:39.597Z,66.21
2018-02-21T12:49:07.946Z,66.34
2018-02-21T12:51:36.460Z,65.52
2018-02-21T12:54:04.816Z,65.97
2018-02-21T12:56:33.143Z,65.46
2018-02-21T12:59:01.481Z,63.04
2018-02-21T13:01:29.848Z,64.13
2018-02-21T13:03:58.165Z,64.77
2018-02-21T13:06:26.509Z,63.13
2018-02-21T13:08:54.838Z,63.83
2018-02-21T13:11:23.194Z,63.15
2018-02-21T13:13:51.573Z,62.41
2018-02-21T13:16:19.910Z,61.42
2018-02-21T13:18:48.244Z,61.69
2018-02-21T13:21:16.659Z,64.08
2018-02-21T13:23:44.954Z,63.80
2018-02-21T13:26:13.310Z,64.15
2018-02-21T13:28:41.641Z,63.81
2018-02-21T13:31:10.007Z,63.48
2018-02-21T13:33:38.342Z,64.18
2018-02-21T13:36:06.694Z,63.79
2018-02-21T13:38:35.035Z,62.70
2018-02-21T13:41:03.383Z,63.62
2018-02-21T13:43:31.834Z,61.73
2018-02-21T13:46:00.195Z,62.16
2018-02-21T13:48:28.525Z,61.03
2018-02-21T13:50:56.879Z,59.59
2018-02-21T13:53:25.205Z,61.45
2018-02-21T13:55:53.553Z,60.75
2018-02-21T13:58:21.887Z,58.87
2018-02-21T14:00:50.239Z,59.05
2018-02-21T14:03:18.564Z,59.77
2018-02-21T14:05:46.912Z,60.05
2018-02-21T14:08:15.247Z,59.84
2018-02-21T14:10:43.593Z,61.09
2018-02-21T14:13:11.933Z,59.10
2018-02-21T14:15:40.305Z,59.43
2018-02-21T14:18:08.636Z,59.37
2018-02-21T14:20:36.986Z,58.44
2018-02-21T14:23:05.358Z,59.08
2018-02-21T14:25:33.804Z,60.15
2018-02-21T14:28:02.174Z,58.94
2018-02-21T14:30:30.593Z,60.98
2018-02-21T14:32:58.949Z,60.61
2018-02-21T14:35:27.439Z,59.97
2018-02-21T14:37:55.813Z,59.70
2018-02-21T14:40:24.436Z,60.45
2018-02-21T14:42:52.778Z,60.45
2018-02-21T14:45:21.723Z,60.49
2018-02-21T14:47:51.853Z,61.59
2018-02-21T14:50:20.261Z,60.00
2018-02-21T14:52:48.611Z,59.31
2018-02-21T14:55:17.127Z,59.00
2018-02-21T14:57:45.451Z,58.13
2018-02-21T15:00:13.818Z,58.28
2018-02-21T15:02:42.557Z,58.26
2018-02-21T15:05:10.861Z,58.77
2018-02-21T15:07:39.359Z,59.76
2018-02-21T15:10:07.687Z,60.04
2018-02-21T15:12:36.225Z,60.70
2018-02-21T15:15:04.558Z,61.59
2018-02-21T15:17:32.939Z,61.20
2018-02-21T15:20:01.271Z,61.96
2018-02-21T15:22:29.622Z,61.60
2018-02-21T15:24:57.947Z,61.69
2018-02-21T15:27:26.303Z,62.76
2018-02-21T15:29:54.692Z,61.76
2018-02-21T15:32:23.257Z,61.52
2018-02-21T15:34:51.610Z,61.69
2018-02-21T15:37:19.966Z,61.98
2018-02-21T15:39:49.425Z,62.52
2018-02-21T15:42:19.260Z,62.96
2018-02-21T15:44:48.081Z,63.37
2018-02-21T15:47:16.913Z,62.48
2018-02-21T15:49:46.403Z,62.44
2018-02-21T15:52:15.950Z,62.52
2018-02-21T15:54:45.599Z,62.76
2018-02-21T15:57:14.327Z,62.21
2018-02-21T15:59:44.129Z,62.16
2018-02-21T16:02:12.925Z,61.62
2018-02-21T16:04:41.609Z,61.93
2018-02-21T16:07:11.218Z,61.79
2018-02-21T16:09:40.413Z,62.65
2018-02-21T16:12:09.814Z,63.13
2018-02-21T16:14:38.605Z,63.74
2018-02-21T16:17:07.413Z,62.96
2018-02-21T16:19:36.276Z,63.13
2018-02-21T16:22:05.081Z,63.36
2018-02-21T16:24:33.747Z,64.21
2018-02-21T16:27:02.601Z,64.22
2018-02-21T16:29:31.423Z,63.88
2018-02-21T16:32:01.210Z,64.31
2018-02-21T16:34:30.122Z,65.00
2018-02-21T16:36:59.809Z,64.93
2018-02-21T16:39:28.743Z,72.24
2018-02-21T16:41:57.712Z,63.53
2018-02-21T16:44:27.517Z,63.48
2018-02-21T16:46:56.899Z,63.94
2018-02-21T16:49:25.807Z,64.64
2018-02-21T16:51:54.929Z,65.06
2018-02-21T16:54:23.881Z,65.37
2018-02-21T16:56:52.799Z,65.63
2018-02-21T16:59:21.774Z,65.49
2018-02-21T17:01:50.875Z,65.67
2018-02-21T17:04:19.410Z,66.00
2018-02-21T17:06:47.757Z,66.39
2018-02-21T17:09:16.100Z,66.87
2018-02-21T17:11:44.487Z,66.44
2018-02-21T17:14:12.807Z,66.50
2018-02-21T17:16:41.906Z,66.83
2018-02-21T17:19:10.241Z,66.68
2018-02-21T17:21:38.653Z,65.96
2018-02-21T17:24:07.062Z,66.03
2018-02-21T17:26:35.514Z,65.66
2018-02-21T17:29:03.866Z,65.31
2018-02-21T17:31:32.191Z,65.11
2018-02-21T17:34:00.893Z,65.71
2018-02-21T17:36:29.238Z,64.00
2018-02-21T17:38:57.581Z,65.54
2018-02-21T17:41:31.650Z,64.99
2018-02-21T17:44:00.022Z,64.10
2018-02-21T17:46:28.482Z,64.09
2018-02-21T17:48:56.850Z,64.67
2018-02-21T17:51:25.173Z,65.15
2018-02-21T17:53:53.598Z,64.87
2018-02-21T17:56:21.933Z,64.07
2018-02-21T17:58:50.296Z,63.57
2018-02-21T18:01:18.611Z,63.23
2018-02-21T18:03:47.018Z,62.96
2018-02-21T18:06:15.358Z,62.90
2018-02-21T18:08:43.766Z,63.61
2018-02-21T18:11:12.098Z,63.91
2018-02-21T18:13:40.469Z,63.76
2018-02-21T18:16:08.789Z,64.73
2018-02-21T18:18:37.138Z,65.03
2018-02-21T18:21:05.478Z,65.42
2018-02-21T18:23:33.862Z,65.60
2018-02-21T18:26:02.250Z,65.28
2018-02-21T18:28:30.679Z,65.33
2018-02-21T18:30:59.024Z,65.12
2018-02-21T18:33:27.401Z,65.31
2018-02-21T18:35:56.704Z,65.55
2018-02-21T18:38:25.067Z,66.59
2018-02-21T18:40:53.486Z,66.64
2018-02-21T18:43:21.846Z,66.40
2018-02-21T18:45:50.197Z,66.31
2018-02-21T18:48:18.590Z,67.09
2018-02-21T18:50:46.948Z,67.85
2018-02-21T18:53:15.365Z,68.23
2018-02-21T18:55:43.783Z,67.99
2018-02-21T18:58:12.276Z,67.98
2018-02-21T19:00:40.635Z,68.14
2018-02-21T19:03:09.083Z,68.44
2018-02-21T19:05:37.412Z,69.19
2018-02-21T19:08:05.889Z,69.25
2018-02-21T19:10:34.313Z,69.28
2018-02-21T19:13:02.684Z,69.00
2018-02-21T19:15:31.069Z,68.30
2018-02-21T19:17:59.425Z,68.15
2018-02-21T19:20:27.787Z,67.77
2018-02-21T19:22:56.227Z,67.83
2018-02-21T19:25:24.643Z,68.08
2018-02-21T19:27:53.032Z,68.82
2018-02-21T19:30:21.442Z,69.44
2018-02-21T19:32:49.814Z,69.17
2018-02-21T19:35:18.201Z,69.01
2018-02-21T19:37:46.609Z,69.19
2018-02-21T19:40:15.016Z,69.20
2018-02-21T19:42:43.402Z,69.22
2018-02-21T19:45:12.007Z,68.87
2018-02-21T19:47:40.424Z,68.79
2018-02-21T19:50:08.788Z,69.01
2018-02-21T19:52:37.111Z,69.20
2018-02-21T19:55:05.522Z,69.59
2018-02-21T19:57:33.900Z,70.13
2018-02-21T20:00:02.239Z,70.21
2018-02-21T20:02:30.589Z,70.05
2018-02-21T20:04:58.946Z,69.82
2018-02-21T20:07:27.266Z,69.73
2018-02-21T20:09:55.673Z,69.59
2018-02-21T20:12:24.057Z,69.77
2018-02-21T20:14:52.436Z,69.73
2018-02-21T20:17:20.834Z,70.07
2018-02-21T20:19:49.296Z,70.00
2018-02-21T20:22:17.872Z,70.21
2018-02-21T20:24:46.298Z,69.96
2018-02-21T20:27:14.622Z,71.53
2018-02-21T20:29:43.006Z,70.10
2018-02-21T20:32:11.378Z,70.23
2018-02-21T20:34:39.782Z,70.45
2018-02-21T20:37:08.134Z,70.38
2018-02-21T20:39:36.496Z,70.39
2018-02-21T20:42:04.822Z,70.76
2018-02-21T20:44:33.266Z,70.45
2018-02-21T20:47:02.521Z,70.77
2018-02-21T20:49:30.898Z,70.89
2018-02-21T20:51:59.318Z,70.79
2018-02-21T20:54:27.697Z,70.82
2018-02-21T20:56:56.179Z,70.59
2018-02-21T20:59:24.533Z,70.39
2018-02-21T21:01:52.926Z,70.57
2018-02-21T21:04:21.310Z,70.88
2018-02-21T21:06:53.067Z,71.01
2018-02-21T21:09:21.513Z,71.43
2018-02-21T21:11:49.850Z,71.38
2018-02-21T21:14:18.198Z,71.43
2018-02-21T21:16:46.530Z,71.26
2018-02-21T21:19:15.418Z,71.27
2018-02-21T21:21:43.749Z,71.46
2018-02-21T21:24:12.217Z,71.84
2018-02-21T21:26:40.543Z,71.75
2018-02-21T21:29:08.965Z,71.50
2018-02-21T21:31:37.306Z,70.98
2018-02-21T21:34:05.727Z,70.80
2018-02-21T21:36:35.002Z,70.76
2018-02-21T21:39:03.334Z,70.62
2018-02-21T21:41:31.693Z,71.44
2018-02-21T21:44:00.018Z,71.76
2018-02-21T21:46:28.421Z,71.37
2018-02-21T21:48:56.808Z,71.27
2018-02-21T21:51:25.198Z,71.06
2018-02-21T21:53:53.530Z,70.92
2018-02-21T21:56:21.885Z,71.09
2018-02-21T21:58:50.217Z,70.81
2018-02-21T22:01:18.578Z,71.25
2018-02-21T22:03:46.962Z,71.06
2018-02-21T22:06:15.321Z,70.66
2018-02-21T22:08:43.651Z,70.78
2018-02-21T22:11:11.993Z,70.87
2018-02-21T22:13:40.325Z,71.00
2018-02-21T22:16:08.677Z,71.55
2018-02-21T22:18:37.473Z,71.59
2018-02-21T22:21:05.813Z,71.55
2018-02-21T22:23:34.145Z,71.58
2018-02-21T22:26:02.493Z,71.84
2018-02-21T22:28:30.845Z,72.45
2018-02-21T22:30:59.236Z,72.51
2018-02-21T22:33:27.559Z,72.86
2018-02-21T22:35:55.971Z,72.99
2018-02-21T22:38:24.295Z,73.29
2018-02-21T22:40:52.638Z,73.35
2018-02-21T22:43:20.994Z,73.43
2018-02-21T22:45:49.382Z,73.32
2018-02-21T22:48:17.705Z,73.62
2018-02-21T22:50:46.058Z,73.81
2018-02-21T22:53:14.389Z,74.12
2018-02-21T22:55:42.782Z,74.47
2018-02-21T22:58:11.110Z,74.72
2018-02-21T23:00:39.534Z,74.83
2018-02-21T23:03:07.909Z,74.91
2018-02-21T23:05:36.254Z,74.95
2018-02-21T23:08:04.666Z,74.93
2018-02-21T23:10:33.050Z,75.32
2018-02-21T23:13:01.373Z,75.39
2018-02-21T23:15:29.737Z,75.34
2018-02-21T23:17:58.061Z,75.62
2018-02-21T23:20:26.405Z,75.76
2018-02-21T23:22:54.730Z,75.68
2018-02-21T23:25:23.102Z,75.95
2018-02-21T23:27:51.430Z,76.13
2018-02-21T23:30:19.777Z,76.02
2018-02-21T23:32:48.135Z,75.55
2018-02-21T23:35:16.510Z,75.59
2018-02-21T23:37:44.886Z,75.76
2018-02-21T23:40:13.220Z,75.92
2018-02-21T23:42:41.561Z,75.92
2018-02-21T23:45:09.885Z,76.18
2018-02-21T23:47:38.295Z,76.28
2018-02-21T23:50:06.625Z,76.23
2018-02-21T23:52:34.974Z,76.25
2018-02-21T23:55:03.320Z,76.11
2018-02-21T23:57:31.701Z,76.20
